sensor_id;sensor_type;location;lat;lon;timestamp;pressure;altitude;pressure_sealevel;temperature;humidity
2397;BME280;1209;48.410;9.054;2023-03-25T00:00:15;95655.88;;;9.60;100.00
2397;BME280;1209;48.410;9.054;2023-03-25T00:02:43;95661.88;;;9.61;100.00
2397;BME280;1209;48.410;9.054;2023-03-25T00:05:11;95670.31;;;9.63;100.00
2397;BME280;1209;48.410;9.054;2023-03-25T00:07:39;95690.75;;;9.59;100.00
2397;BME280;1209;48.410;9.054;2023-03-25T00:10:06;95710.53;;;9.54;100.00
2397;BME280;1209;48.410;9.054;2023-03-25T00:12:31;95745.09;;;9.18;100.00
2397;BME280;1209;48.410;9.054;2023-03-25T00:14:57;95725.97;;;8.59;100.00
2397;BME280;1209;48.410;9.054;2023-03-25T00:17:24;95724.03;;;8.30;100.00
2397;BME280;1209;48.410;9.054;2023-03-25T00:19:57;95730.69;;;8.09;100.00
2397;BME280;1209;48.410;9.054;2023-03-25T00:22:24;95746.13;;;8.03;100.00
2397;BME280;1209;48.410;9.054;2023-03-25T00:24:49;95730.69;;;8.01;100.00
2397;BME280;1209;48.410;9.054;2023-03-25T00:27:16;95730.22;;;7.98;100.00
2397;BME280;1209;48.410;9.054;2023-03-25T00:29:43;95704.69;;;8.01;100.00
2397;BME280;1209;48.410;9.054;2023-03-25T00:32:10;95710.94;;;7.92;100.00
2397;BME280;1209;48.410;9.054;2023-03-25T00:34:35;95705.28;;;7.88;100.00
2397;BME280;1209;48.410;9.054;2023-03-25T00:37:06;95707.91;;;7.80;100.00
2397;BME280;1209;48.410;9.054;2023-03-25T00:39:33;95718.19;;;7.74;100.00
2397;BME280;1209;48.410;9.054;2023-03-25T00:41:58;95701.97;;;7.72;100.00
2397;BME280;1209;48.410;9.054;2023-03-25T00:44:23;95697.56;;;7.72;100.00
2397;BME280;1209;48.410;9.054;2023-03-25T00:46:48;95702.31;;;7.69;100.00
2397;BME280;1209;48.410;9.054;2023-03-25T00:49:14;95701.03;;;7.65;100.00
2397;BME280;1209;48.410;9.054;2023-03-25T00:51:39;95699.91;;;7.59;100.00
2397;BME280;1209;48.410;9.054;2023-03-25T00:54:04;95692.13;;;7.59;100.00
2397;BME280;1209;48.410;9.054;2023-03-25T00:56:30;95695.19;;;7.63;100.00
2397;BME280;1209;48.410;9.054;2023-03-25T00:58:56;95691.16;;;7.60;100.00
2397;BME280;1209;48.410;9.054;2023-03-25T01:01:24;95677.03;;;7.54;100.00
2397;BME280;1209;48.410;9.054;2023-03-25T01:03:54;95677.22;;;7.45;100.00
2397;BME280;1209;48.410;9.054;2023-03-25T01:06:25;95669.13;;;7.40;100.00
2397;BME280;1209;48.410;9.054;2023-03-25T01:08:53;95666.88;;;7.37;100.00
2397;BME280;1209;48.410;9.054;2023-03-25T01:11:21;95675.16;;;7.40;100.00
2397;BME280;1209;48.410;9.054;2023-03-25T01:13:48;95675.50;;;7.37;100.00
2397;BME280;1209;48.410;9.054;2023-03-25T01:16:13;95690.41;;;7.43;100.00
2397;BME280;1209;48.410;9.054;2023-03-25T01:18:39;95689.13;;;7.39;100.00
2397;BME280;1209;48.410;9.054;2023-03-25T01:21:05;95684.03;;;7.46;100.00
2397;BME280;1209;48.410;9.054;2023-03-25T01:23:31;95686.13;;;7.50;100.00
2397;BME280;1209;48.410;9.054;2023-03-25T01:25:57;95681.91;;;7.49;100.00
2397;BME280;1209;48.410;9.054;2023-03-25T01:28:23;95671.69;;;7.48;100.00
2397;BME280;1209;48.410;9.054;2023-03-25T01:30:48;95683.06;;;7.47;100.00
2397;BME280;1209;48.410;9.054;2023-03-25T01:33:14;95678.69;;;7.47;100.00
2397;BME280;1209;48.410;9.054;2023-03-25T01:35:39;95689.06;;;7.47;100.00
2397;BME280;1209;48.410;9.054;2023-03-25T01:38:05;95676.72;;;7.57;100.00
2397;BME280;1209;48.410;9.054;2023-03-25T01:40:30;95680.13;;;7.58;100.00
2397;BME280;1209;48.410;9.054;2023-03-25T01:42:55;95685.59;;;7.63;100.00
2397;BME280;1209;48.410;9.054;2023-03-25T01:45:29;95680.25;;;7.56;100.00
2397;BME280;1209;48.410;9.054;2023-03-25T01:48:07;95674.25;;;7.56;100.00
2397;BME280;1209;48.410;9.054;2023-03-25T01:50:36;95699.75;;;7.52;100.00
2397;BME280;1209;48.410;9.054;2023-03-25T01:53:03;95690.84;;;7.47;100.00
2397;BME280;1209;48.410;9.054;2023-03-25T01:55:32;95649.16;;;7.40;100.00
2397;BME280;1209;48.410;9.054;2023-03-25T01:57:59;95668.22;;;7.33;100.00
2397;BME280;1209;48.410;9.054;2023-03-25T02:00:26;95685.75;;;7.31;100.00
2397;BME280;1209;48.410;9.054;2023-03-25T02:02:53;95659.66;;;7.24;100.00
2397;BME280;1209;48.410;9.054;2023-03-25T02:05:29;95662.09;;;7.17;100.00
2397;BME280;1209;48.410;9.054;2023-03-25T02:07:56;95641.84;;;7.13;100.00
2397;BME280;1209;48.410;9.054;2023-03-25T02:10:22;95635.03;;;7.12;100.00
2397;BME280;1209;48.410;9.054;2023-03-25T02:12:48;95645.59;;;7.10;100.00
2397;BME280;1209;48.410;9.054;2023-03-25T02:15:15;95645.91;;;7.07;100.00
2397;BME280;1209;48.410;9.054;2023-03-25T02:18:07;95641.06;;;6.96;100.00
2397;BME280;1209;48.410;9.054;2023-03-25T02:21:02;95643.69;;;6.88;100.00
2397;BME280;1209;48.410;9.054;2023-03-25T02:23:49;95644.69;;;6.79;100.00
2397;BME280;1209;48.410;9.054;2023-03-25T02:38:47;95671.16;;;6.74;100.00
2397;BME280;1209;48.410;9.054;2023-03-25T02:44:04;95669.19;;;6.76;100.00
2397;BME280;1209;48.410;9.054;2023-03-25T02:46:32;95676.03;;;6.69;100.00
2397;BME280;1209;48.410;9.054;2023-03-25T02:49:07;95675.69;;;6.72;100.00
2397;BME280;1209;48.410;9.054;2023-03-25T02:51:48;95688.31;;;6.83;100.00
2397;BME280;1209;48.410;9.054;2023-03-25T02:54:18;95694.81;;;6.79;100.00
2397;BME280;1209;48.410;9.054;2023-03-25T02:56:46;95694.97;;;6.78;100.00
2397;BME280;1209;48.410;9.054;2023-03-25T02:59:14;95707.81;;;6.63;100.00
2397;BME280;1209;48.410;9.054;2023-03-25T03:01:42;95717.19;;;6.56;100.00
2397;BME280;1209;48.410;9.054;2023-03-25T03:04:08;95697.44;;;6.47;100.00
2397;BME280;1209;48.410;9.054;2023-03-25T03:06:37;95688.03;;;6.46;100.00
2397;BME280;1209;48.410;9.054;2023-03-25T03:09:19;95682.84;;;6.46;100.00
2397;BME280;1209;48.410;9.054;2023-03-25T03:14:54;95671.00;;;6.43;100.00
2397;BME280;1209;48.410;9.054;2023-03-25T03:25:31;95661.31;;;6.37;100.00
2397;BME280;1209;48.410;9.054;2023-03-25T03:28:10;95659.19;;;6.41;100.00
2397;BME280;1209;48.410;9.054;2023-03-25T03:31:13;95673.78;;;6.42;100.00
2397;BME280;1209;48.410;9.054;2023-03-25T03:33:52;95669.22;;;6.44;100.00
2397;BME280;1209;48.410;9.054;2023-03-25T03:36:26;95651.72;;;6.46;100.00
2397;BME280;1209;48.410;9.054;2023-03-25T03:39:06;95654.63;;;6.51;100.00
2397;BME280;1209;48.410;9.054;2023-03-25T03:41:36;95647.19;;;6.48;100.00
2397;BME280;1209;48.410;9.054;2023-03-25T03:44:11;95647.34;;;6.62;100.00
2397;BME280;1209;48.410;9.054;2023-03-25T03:49:20;95645.03;;;6.76;100.00
2397;BME280;1209;48.410;9.054;2023-03-25T03:51:52;95636.41;;;6.83;100.00
2397;BME280;1209;48.410;9.054;2023-03-25T03:57:02;95644.16;;;6.91;100.00
2397;BME280;1209;48.410;9.054;2023-03-25T03:59:50;95642.19;;;7.02;100.00
2397;BME280;1209;48.410;9.054;2023-03-25T04:02:29;95644.09;;;7.08;100.00
2397;BME280;1209;48.410;9.054;2023-03-25T04:04:59;95647.69;;;7.15;100.00
2397;BME280;1209;48.410;9.054;2023-03-25T04:07:43;95651.72;;;7.17;100.00
2397;BME280;1209;48.410;9.054;2023-03-25T04:10:13;95645.03;;;7.23;100.00
2397;BME280;1209;48.410;9.054;2023-03-25T04:12:44;95643.44;;;7.22;100.00
2397;BME280;1209;48.410;9.054;2023-03-25T04:15:10;95645.69;;;7.25;100.00
2397;BME280;1209;48.410;9.054;2023-03-25T04:17:36;95640.50;;;7.25;100.00
2397;BME280;1209;48.410;9.054;2023-03-25T04:20:01;95639.84;;;7.23;100.00
2397;BME280;1209;48.410;9.054;2023-03-25T04:22:32;95659.00;;;7.22;100.00
2397;BME280;1209;48.410;9.054;2023-03-25T04:24:58;95659.97;;;7.21;100.00
2397;BME280;1209;48.410;9.054;2023-03-25T04:27:24;95664.38;;;7.20;100.00
2397;BME280;1209;48.410;9.054;2023-03-25T04:29:54;95659.50;;;7.17;100.00
2397;BME280;1209;48.410;9.054;2023-03-25T04:32:22;95654.97;;;7.19;100.00
2397;BME280;1209;48.410;9.054;2023-03-25T04:34:47;95658.53;;;7.18;100.00
2397;BME280;1209;48.410;9.054;2023-03-25T04:37:13;95664.06;;;7.15;100.00
2397;BME280;1209;48.410;9.054;2023-03-25T04:39:38;95661.81;;;7.12;100.00
2397;BME280;1209;48.410;9.054;2023-03-25T04:42:04;95669.91;;;7.09;100.00
2397;BME280;1209;48.410;9.054;2023-03-25T04:44:30;95662.28;;;7.08;100.00
2397;BME280;1209;48.410;9.054;2023-03-25T04:47:04;95677.53;;;7.03;100.00
2397;BME280;1209;48.410;9.054;2023-03-25T04:49:31;95680.16;;;7.03;100.00
2397;BME280;1209;48.410;9.054;2023-03-25T04:51:57;95677.88;;;7.00;100.00
2397;BME280;1209;48.410;9.054;2023-03-25T04:54:23;95679.53;;;6.92;100.00
2397;BME280;1209;48.410;9.054;2023-03-25T04:56:50;95678.56;;;6.93;100.00
2397;BME280;1209;48.410;9.054;2023-03-25T04:59:17;95682.91;;;7.01;100.00
2397;BME280;1209;48.410;9.054;2023-03-25T05:01:43;95693.28;;;7.01;100.00
2397;BME280;1209;48.410;9.054;2023-03-25T05:04:11;95686.66;;;6.99;100.00
2397;BME280;1209;48.410;9.054;2023-03-25T05:06:44;95687.94;;;7.03;100.00
2397;BME280;1209;48.410;9.054;2023-03-25T05:09:12;95683.06;;;7.00;100.00
2397;BME280;1209;48.410;9.054;2023-03-25T05:11:38;95693.13;;;7.11;100.00
2397;BME280;1209;48.410;9.054;2023-03-25T05:14:06;95694.91;;;7.10;100.00
2397;BME280;1209;48.410;9.054;2023-03-25T05:16:32;95706.75;;;7.05;100.00
2397;BME280;1209;48.410;9.054;2023-03-25T05:18:57;95690.19;;;7.06;100.00
2397;BME280;1209;48.410;9.054;2023-03-25T05:21:23;95687.44;;;7.07;100.00
2397;BME280;1209;48.410;9.054;2023-03-25T05:23:49;95699.94;;;7.04;100.00
2397;BME280;1209;48.410;9.054;2023-03-25T05:26:15;95700.75;;;7.04;100.00
2397;BME280;1209;48.410;9.054;2023-03-25T05:28:40;95699.94;;;7.04;100.00
2397;BME280;1209;48.410;9.054;2023-03-25T05:31:06;95703.50;;;7.03;100.00
2397;BME280;1209;48.410;9.054;2023-03-25T05:33:35;95711.78;;;7.06;100.00
2397;BME280;1209;48.410;9.054;2023-03-25T05:36:08;95712.91;;;7.12;100.00
2397;BME280;1209;48.410;9.054;2023-03-25T05:38:33;95720.22;;;7.16;100.00
2397;BME280;1209;48.410;9.054;2023-03-25T05:40:59;95714.88;;;7.10;100.00
2397;BME280;1209;48.410;9.054;2023-03-25T05:43:24;95722.97;;;7.15;100.00
2397;BME280;1209;48.410;9.054;2023-03-25T05:45:49;95729.78;;;7.16;100.00
2397;BME280;1209;48.410;9.054;2023-03-25T05:48:15;95734.97;;;7.16;100.00
2397;BME280;1209;48.410;9.054;2023-03-25T05:50:40;95732.22;;;7.09;100.00
2397;BME280;1209;48.410;9.054;2023-03-25T05:53:09;95734.31;;;7.06;100.00
2397;BME280;1209;48.410;9.054;2023-03-25T05:55:36;95725.72;;;7.05;100.00
2397;BME280;1209;48.410;9.054;2023-03-25T05:58:02;95733.03;;;7.02;100.00
2397;BME280;1209;48.410;9.054;2023-03-25T06:00:27;95732.22;;;7.01;100.00
2397;BME280;1209;48.410;9.054;2023-03-25T06:02:54;95731.59;;;6.99;100.00
2397;BME280;1209;48.410;9.054;2023-03-25T06:05:19;95732.41;;;7.00;100.00
2397;BME280;1209;48.410;9.054;2023-03-25T06:07:48;95749.25;;;7.04;100.00
2397;BME280;1209;48.410;9.054;2023-03-25T06:10:15;95755.72;;;7.08;100.00
2397;BME280;1209;48.410;9.054;2023-03-25T06:12:41;95754.63;;;7.10;100.00
2397;BME280;1209;48.410;9.054;2023-03-25T06:15:07;95762.88;;;7.14;100.00
2397;BME280;1209;48.410;9.054;2023-03-25T06:17:33;95764.19;;;7.18;100.00
2397;BME280;1209;48.410;9.054;2023-03-25T06:20:06;95764.50;;;7.15;100.00
2397;BME280;1209;48.410;9.054;2023-03-25T06:22:40;95763.22;;;7.11;100.00
2397;BME280;1209;48.410;9.054;2023-03-25T06:25:10;95761.09;;;7.14;100.00
2397;BME280;1209;48.410;9.054;2023-03-25T06:27:36;95776.53;;;7.16;100.00
2397;BME280;1209;48.410;9.054;2023-03-25T06:30:09;95773.59;;;7.19;100.00
2397;BME280;1209;48.410;9.054;2023-03-25T06:32:35;95771.47;;;7.22;100.00
2397;BME280;1209;48.410;9.054;2023-03-25T06:35:02;95764.47;;;7.31;100.00
2397;BME280;1209;48.410;9.054;2023-03-25T06:37:28;95762.34;;;7.35;100.00
2397;BME280;1209;48.410;9.054;2023-03-25T06:39:53;95764.59;;;7.38;100.00
2397;BME280;1209;48.410;9.054;2023-03-25T06:42:24;95763.13;;;7.43;100.00
2397;BME280;1209;48.410;9.054;2023-03-25T06:44:49;95753.22;;;7.47;100.00
2397;BME280;1209;48.410;9.054;2023-03-25T06:47:15;95764.41;;;7.47;100.00
2397;BME280;1209;48.410;9.054;2023-03-25T06:49:40;95767.34;;;7.44;100.00
2397;BME280;1209;48.410;9.054;2023-03-25T06:52:05;95761.03;;;7.39;100.00
2397;BME280;1209;48.410;9.054;2023-03-25T06:54:31;95768.31;;;7.43;100.00
2397;BME280;1209;48.410;9.054;2023-03-25T06:56:56;95765.75;;;7.35;100.00
2397;BME280;1209;48.410;9.054;2023-03-25T06:59:21;95755.88;;;7.31;100.00
2397;BME280;1209;48.410;9.054;2023-03-25T07:01:47;95752.78;;;7.27;100.00
2397;BME280;1209;48.410;9.054;2023-03-25T07:04:13;95761.38;;;7.28;100.00
2397;BME280;1209;48.410;9.054;2023-03-25T07:06:38;95762.19;;;7.28;100.00
2397;BME280;1209;48.410;9.054;2023-03-25T07:09:03;95761.69;;;7.33;100.00
2397;BME280;1209;48.410;9.054;2023-03-25T07:11:29;95752.28;;;7.32;100.00
2397;BME280;1209;48.410;9.054;2023-03-25T07:13:56;95758.59;;;7.37;100.00
2397;BME280;1209;48.410;9.054;2023-03-25T07:16:22;95768.31;;;7.43;100.00
2397;BME280;1209;48.410;9.054;2023-03-25T07:18:48;95765.19;;;7.56;100.00
2397;BME280;1209;48.410;9.054;2023-03-25T07:21:15;95757.03;;;7.67;100.00
2397;BME280;1209;48.410;9.054;2023-03-25T07:23:40;95766.38;;;7.84;100.00
2397;BME280;1209;48.410;9.054;2023-03-25T07:26:05;95761.00;;;7.86;100.00
2397;BME280;1209;48.410;9.054;2023-03-25T07:28:31;95754.91;;;8.02;100.00
2397;BME280;1209;48.410;9.054;2023-03-25T07:30:56;95739.28;;;8.10;100.00
2397;BME280;1209;48.410;9.054;2023-03-25T07:33:21;95748.56;;;8.35;100.00
2397;BME280;1209;48.410;9.054;2023-03-25T07:35:47;95747.13;;;8.56;100.00
2397;BME280;1209;48.410;9.054;2023-03-25T07:38:12;95746.06;;;8.42;100.00
2397;BME280;1209;48.410;9.054;2023-03-25T07:40:37;95739.94;;;8.35;100.00
2397;BME280;1209;48.410;9.054;2023-03-25T07:43:03;95744.97;;;8.36;100.00
2397;BME280;1209;48.410;9.054;2023-03-25T07:45:28;95755.69;;;8.41;100.00
2397;BME280;1209;48.410;9.054;2023-03-25T07:47:54;95751.97;;;8.36;100.00
2397;BME280;1209;48.410;9.054;2023-03-25T07:50:20;95745.88;;;8.51;100.00
2397;BME280;1209;48.410;9.054;2023-03-25T07:52:46;95755.41;;;8.59;100.00
2397;BME280;1209;48.410;9.054;2023-03-25T07:55:12;95754.41;;;8.60;100.00
2397;BME280;1209;48.410;9.054;2023-03-25T07:57:39;95742.88;;;8.77;100.00
2397;BME280;1209;48.410;9.054;2023-03-25T08:00:06;95764.06;;;8.74;100.00
2397;BME280;1209;48.410;9.054;2023-03-25T08:02:32;95755.53;;;8.80;100.00
2397;BME280;1209;48.410;9.054;2023-03-25T08:04:57;95739.09;;;8.65;100.00
2397;BME280;1209;48.410;9.054;2023-03-25T08:07:24;95751.63;;;8.62;100.00
2397;BME280;1209;48.410;9.054;2023-03-25T08:09:49;95737.41;;;8.72;100.00
2397;BME280;1209;48.410;9.054;2023-03-25T08:12:14;95735.16;;;8.69;100.00
2397;BME280;1209;48.410;9.054;2023-03-25T08:14:40;95735.78;;;8.71;100.00
2397;BME280;1209;48.410;9.054;2023-03-25T08:17:05;95730.38;;;8.73;100.00
2397;BME280;1209;48.410;9.054;2023-03-25T08:19:31;95727.25;;;8.77;100.00
2397;BME280;1209;48.410;9.054;2023-03-25T08:21:57;95725.91;;;8.67;100.00
2397;BME280;1209;48.410;9.054;2023-03-25T08:24:22;95735.03;;;8.63;100.00
2397;BME280;1209;48.410;9.054;2023-03-25T08:26:51;95727.13;;;8.56;100.00
2397;BME280;1209;48.410;9.054;2023-03-25T08:29:18;95735.91;;;8.55;100.00
2397;BME280;1209;48.410;9.054;2023-03-25T08:31:44;95738.09;;;8.66;100.00
2397;BME280;1209;48.410;9.054;2023-03-25T08:34:11;95740.25;;;8.63;100.00
2397;BME280;1209;48.410;9.054;2023-03-25T08:36:37;95729.66;;;8.64;100.00
2397;BME280;1209;48.410;9.054;2023-03-25T08:39:06;95720.06;;;8.65;100.00
2397;BME280;1209;48.410;9.054;2023-03-25T08:41:38;95727.78;;;8.73;100.00
2397;BME280;1209;48.410;9.054;2023-03-25T08:44:05;95722.97;;;8.84;100.00
2397;BME280;1209;48.410;9.054;2023-03-25T08:46:31;95720.41;;;9.29;100.00
2397;BME280;1209;48.410;9.054;2023-03-25T08:48:56;95720.59;;;9.57;100.00
2397;BME280;1209;48.410;9.054;2023-03-25T08:51:22;95714.06;;;9.82;100.00
2397;BME280;1209;48.410;9.054;2023-03-25T08:53:47;95714.25;;;10.17;100.00
2397;BME280;1209;48.410;9.054;2023-03-25T08:56:13;95706.00;;;10.34;100.00
2397;BME280;1209;48.410;9.054;2023-03-25T08:58:39;95709.25;;;10.58;100.00
2397;BME280;1209;48.410;9.054;2023-03-25T09:01:05;95705.50;;;10.67;100.00
2397;BME280;1209;48.410;9.054;2023-03-25T09:03:30;95722.84;;;10.75;100.00
2397;BME280;1209;48.410;9.054;2023-03-25T09:05:56;95721.19;;;10.09;100.00
2397;BME280;1209;48.410;9.054;2023-03-25T09:08:21;95716.75;;;9.89;100.00
2397;BME280;1209;48.410;9.054;2023-03-25T09:10:47;95714.53;;;9.71;100.00
2397;BME280;1209;48.410;9.054;2023-03-25T09:13:12;95715.63;;;9.62;100.00
2397;BME280;1209;48.410;9.054;2023-03-25T09:15:37;95727.22;;;9.44;100.00
2397;BME280;1209;48.410;9.054;2023-03-25T09:18:03;95715.28;;;9.35;100.00
2397;BME280;1209;48.410;9.054;2023-03-25T09:20:29;95718.50;;;9.37;100.00
2397;BME280;1209;48.410;9.054;2023-03-25T09:22:55;95719.84;;;9.33;100.00
2397;BME280;1209;48.410;9.054;2023-03-25T09:25:21;95707.75;;;9.26;100.00
2397;BME280;1209;48.410;9.054;2023-03-25T09:27:46;95705.50;;;9.23;100.00
2397;BME280;1209;48.410;9.054;2023-03-25T09:30:12;95701.88;;;9.38;100.00
2397;BME280;1209;48.410;9.054;2023-03-25T09:32:37;95705.13;;;9.91;100.00
2397;BME280;1209;48.410;9.054;2023-03-25T09:35:03;95713.47;;;10.59;100.00
2397;BME280;1209;48.410;9.054;2023-03-25T09:37:28;95716.81;;;10.74;100.00
2397;BME280;1209;48.410;9.054;2023-03-25T09:39:55;95713.59;;;10.51;100.00
2397;BME280;1209;48.410;9.054;2023-03-25T09:42:33;95709.66;;;10.40;100.00
2397;BME280;1209;48.410;9.054;2023-03-25T09:45:48;95715.91;;;10.60;100.00
2397;BME280;1209;48.410;9.054;2023-03-25T09:48:00;95712.22;;;11.04;100.00
2397;BME280;1209;48.410;9.054;2023-03-25T09:50:29;95709.06;;;11.50;100.00
2397;BME280;1209;48.410;9.054;2023-03-25T09:53:34;95719.69;;;10.86;100.00
2397;BME280;1209;48.410;9.054;2023-03-25T09:56:02;95709.19;;;11.00;100.00
2397;BME280;1209;48.410;9.054;2023-03-25T10:06:44;95711.13;;;10.43;100.00
2397;BME280;1209;48.410;9.054;2023-03-25T10:12:51;95709.63;;;9.97;100.00
2397;BME280;1209;48.410;9.054;2023-03-25T10:20:09;95711.13;;;10.43;100.00
2397;BME280;1209;48.410;9.054;2023-03-25T10:25:13;95709.72;;;10.68;100.00
2397;BME280;1209;48.410;9.054;2023-03-25T10:27:43;95707.63;;;10.85;100.00
2397;BME280;1209;48.410;9.054;2023-03-25T10:30:31;95707.38;;;10.52;100.00
2397;BME280;1209;48.410;9.054;2023-03-25T10:33:05;95725.78;;;10.07;100.00
2397;BME280;1209;48.410;9.054;2023-03-25T10:35:39;95726.56;;;10.23;100.00
2397;BME280;1209;48.410;9.054;2023-03-25T10:38:13;95722.91;;;10.38;100.00
2397;BME280;1209;48.410;9.054;2023-03-25T10:40:44;95728.31;;;10.37;100.00
2397;BME280;1209;48.410;9.054;2023-03-25T10:43:31;95738.78;;;10.58;100.00
2397;BME280;1209;48.410;9.054;2023-03-25T10:46:17;95744.97;;;10.79;100.00
2397;BME280;1209;48.410;9.054;2023-03-25T10:48:45;95750.50;;;10.69;100.00
2397;BME280;1209;48.410;9.054;2023-03-25T10:51:14;95754.94;;;10.68;100.00
2397;BME280;1209;48.410;9.054;2023-03-25T10:53:41;95753.38;;;10.53;100.00
2397;BME280;1209;48.410;9.054;2023-03-25T10:56:15;95755.03;;;11.03;100.00
2397;BME280;1209;48.410;9.054;2023-03-25T10:58:44;95749.50;;;10.91;100.00
2397;BME280;1209;48.410;9.054;2023-03-25T11:01:12;95742.38;;;11.07;100.00
2397;BME280;1209;48.410;9.054;2023-03-25T11:03:40;95745.69;;;11.22;100.00
2397;BME280;1209;48.410;9.054;2023-03-25T11:06:21;95740.63;;;11.42;100.00
2397;BME280;1209;48.410;9.054;2023-03-25T11:11:34;95753.16;;;11.59;100.00
2397;BME280;1209;48.410;9.054;2023-03-25T11:14:01;95750.16;;;11.90;98.68
2397;BME280;1209;48.410;9.054;2023-03-25T11:16:35;95741.53;;;12.10;92.37
2397;BME280;1209;48.410;9.054;2023-03-25T11:19:05;95728.94;;;12.40;95.14
2397;BME280;1209;48.410;9.054;2023-03-25T11:21:32;95741.56;;;12.16;97.84
2397;BME280;1209;48.410;9.054;2023-03-25T11:24:00;95743.03;;;11.78;95.63
2397;BME280;1209;48.410;9.054;2023-03-25T11:26:28;95740.25;;;12.60;90.86
2397;BME280;1209;48.410;9.054;2023-03-25T11:29:05;95739.88;;;12.96;87.53
2397;BME280;1209;48.410;9.054;2023-03-25T11:31:35;95749.91;;;12.53;84.56
2397;BME280;1209;48.410;9.054;2023-03-25T11:41:58;95740.56;;;11.76;92.26
2397;BME280;1209;48.410;9.054;2023-03-25T11:44:29;95742.53;;;11.67;92.76
2397;BME280;1209;48.410;9.054;2023-03-25T11:46:58;95733.06;;;11.60;95.52
2397;BME280;1209;48.410;9.054;2023-03-25T11:49:27;95739.38;;;11.38;93.65
2397;BME280;1209;48.410;9.054;2023-03-25T11:54:46;95741.75;;;11.32;92.18
2397;BME280;1209;48.410;9.054;2023-03-25T11:57:16;95742.09;;;11.23;93.11
2397;BME280;1209;48.410;9.054;2023-03-25T11:59:48;95743.81;;;11.09;95.12
2397;BME280;1209;48.410;9.054;2023-03-25T12:02:37;95739.38;;;11.38;98.89
2397;BME280;1209;48.410;9.054;2023-03-25T12:05:12;95723.22;;;11.27;96.63
2397;BME280;1209;48.410;9.054;2023-03-25T12:07:48;95736.91;;;11.29;95.59
2397;BME280;1209;48.410;9.054;2023-03-25T12:13:38;95741.47;;;11.21;95.39
2397;BME280;1209;48.410;9.054;2023-03-25T12:15:46;95738.34;;;11.04;93.11
2397;BME280;1209;48.410;9.054;2023-03-25T12:30:09;95737.19;;;10.85;100.00
2397;BME280;1209;48.410;9.054;2023-03-25T12:32:21;95743.44;;;10.63;100.00
2397;BME280;1209;48.410;9.054;2023-03-25T12:43:43;95755.16;;;10.95;100.00
2397;BME280;1209;48.410;9.054;2023-03-25T12:46:28;95743.53;;;11.66;100.00
2397;BME280;1209;48.410;9.054;2023-03-25T12:57:40;95712.66;;;12.84;97.85
2397;BME280;1209;48.410;9.054;2023-03-25T13:00:24;95741.44;;;12.38;97.85
2397;BME280;1209;48.410;9.054;2023-03-25T13:03:00;95737.81;;;12.45;94.28
2397;BME280;1209;48.410;9.054;2023-03-25T13:08:29;95734.44;;;11.56;96.29
2397;BME280;1209;48.410;9.054;2023-03-25T13:11:06;95734.34;;;11.77;96.04
2397;BME280;1209;48.410;9.054;2023-03-25T13:13:35;95725.03;;;11.68;97.87
2397;BME280;1209;48.410;9.054;2023-03-25T13:16:10;95731.06;;;11.62;100.00
2397;BME280;1209;48.410;9.054;2023-03-25T13:19:09;95735.09;;;11.64;99.27
2397;BME280;1209;48.410;9.054;2023-03-25T13:21:38;95735.28;;;11.63;98.20
2397;BME280;1209;48.410;9.054;2023-03-25T13:24:09;95735.22;;;11.50;99.85
2397;BME280;1209;48.410;9.054;2023-03-25T13:26:39;95745.66;;;11.43;100.00
2397;BME280;1209;48.410;9.054;2023-03-25T13:29:15;95744.03;;;11.42;100.00
2397;BME280;1209;48.410;9.054;2023-03-25T13:31:45;95740.63;;;11.42;100.00
2397;BME280;1209;48.410;9.054;2023-03-25T13:37:28;95736.94;;;12.18;100.00
2397;BME280;1209;48.410;9.054;2023-03-25T13:40:19;95729.53;;;12.35;100.00
2397;BME280;1209;48.410;9.054;2023-03-25T13:42:59;95723.31;;;12.69;100.00
2397;BME280;1209;48.410;9.054;2023-03-25T13:45:33;95719.91;;;12.95;100.00
2397;BME280;1209;48.410;9.054;2023-03-25T13:48:17;95720.50;;;13.10;96.39
2397;BME280;1209;48.410;9.054;2023-03-25T13:50:44;95709.22;;;13.23;94.04
2397;BME280;1209;48.410;9.054;2023-03-25T13:53:22;95710.22;;;13.22;92.09
2397;BME280;1209;48.410;9.054;2023-03-25T13:59:27;95720.13;;;12.80;91.41
2397;BME280;1209;48.410;9.054;2023-03-25T14:13:35;95719.28;;;12.34;97.42
2397;BME280;1209;48.410;9.054;2023-03-25T14:16:06;95727.63;;;12.03;97.19
2397;BME280;1209;48.410;9.054;2023-03-25T14:18:40;95744.09;;;11.55;100.00
2397;BME280;1209;48.410;9.054;2023-03-25T14:23:45;95783.94;;;10.80;100.00
2397;BME280;1209;48.410;9.054;2023-03-25T14:26:11;95774.16;;;10.25;100.00
2397;BME280;1209;48.410;9.054;2023-03-25T14:28:42;95768.31;;;10.23;100.00
2397;BME280;1209;48.410;9.054;2023-03-25T14:31:16;95758.66;;;10.59;100.00
2397;BME280;1209;48.410;9.054;2023-03-25T14:44:32;95758.56;;;11.51;100.00
2397;BME280;1209;48.410;9.054;2023-03-25T14:47:44;95754.97;;;11.59;100.00
2397;BME280;1209;48.410;9.054;2023-03-25T14:52:43;95761.03;;;11.94;100.00
2397;BME280;1209;48.410;9.054;2023-03-25T14:55:17;95760.28;;;11.72;100.00
2397;BME280;1209;48.410;9.054;2023-03-25T14:57:43;95757.44;;;11.67;100.00
2397;BME280;1209;48.410;9.054;2023-03-25T15:00:20;95750.94;;;11.84;100.00
2397;BME280;1209;48.410;9.054;2023-03-25T15:02:56;95767.63;;;11.83;100.00
2397;BME280;1209;48.410;9.054;2023-03-25T15:05:27;95768.69;;;11.67;100.00
2397;BME280;1209;48.410;9.054;2023-03-25T15:07:58;95763.09;;;11.71;100.00
2397;BME280;1209;48.410;9.054;2023-03-25T15:10:29;95758.22;;;11.95;100.00
2397;BME280;1209;48.410;9.054;2023-03-25T15:13:26;95761.22;;;11.92;100.00
2397;BME280;1209;48.410;9.054;2023-03-25T15:16:00;95757.84;;;11.71;100.00
2397;BME280;1209;48.410;9.054;2023-03-25T15:21:22;95755.41;;;11.34;100.00
2397;BME280;1209;48.410;9.054;2023-03-25T15:24:08;95751.72;;;11.22;100.00
2397;BME280;1209;48.410;9.054;2023-03-25T15:26:37;95759.19;;;10.97;100.00
2397;BME280;1209;48.410;9.054;2023-03-25T15:29:39;95756.22;;;10.79;100.00
2397;BME280;1209;48.410;9.054;2023-03-25T15:40:45;95790.16;;;9.71;100.00
2397;BME280;1209;48.410;9.054;2023-03-25T15:43:56;95791.66;;;9.80;100.00
2397;BME280;1209;48.410;9.054;2023-03-25T15:46:54;95767.66;;;9.85;100.00
2397;BME280;1209;48.410;9.054;2023-03-25T15:52:36;95764.25;;;9.69;100.00
2397;BME280;1209;48.410;9.054;2023-03-25T15:55:27;95757.88;;;9.72;100.00
2397;BME280;1209;48.410;9.054;2023-03-25T15:57:58;95750.66;;;9.74;100.00
2397;BME280;1209;48.410;9.054;2023-03-25T16:00:28;95754.44;;;9.86;100.00
2397;BME280;1209;48.410;9.054;2023-03-25T16:05:28;95753.34;;;9.95;100.00